sensor_id;sensor_type;location;lat;lon;timestamp;pressure;altitude;pressure_sealevel;temperature;humidity
62111;BME280;48102;47.526;19.072;2024-01-15T04:41:23;99013.97;;;-3.66;100.00
62111;BME280;48102;47.526;19.072;2024-01-15T04:44:26;99013.97;;;-3.66;100.00
62111;BME280;48102;47.526;19.072;2024-01-15T04:47:29;99021.41;;;-4.13;100.00
62111;BME280;48102;47.526;19.072;2024-01-15T04:50:32;99032.63;;;-4.18;100.00
62111;BME280;48102;47.526;19.072;2024-01-15T04:53:35;99016.31;;;-4.19;100.00
62111;BME280;48102;47.526;19.072;2024-01-15T04:56:38;99017.25;;;-4.23;100.00
62111;BME280;48102;47.526;19.072;2024-01-15T04:59:41;99015.44;;;-4.16;100.00
62111;BME280;48102;47.526;19.072;2024-01-15T05:02:44;99018.94;;;-4.23;100.00
62111;BME280;48102;47.526;19.072;2024-01-15T05:05:47;99013.75;;;-4.19;100.00
62111;BME280;48102;47.526;19.072;2024-01-15T05:08:50;99013.75;;;-4.17;100.00
62111;BME280;48102;47.526;19.072;2024-01-15T05:11:53;99028.31;;;-4.16;100.00
62111;BME280;48102;47.526;19.072;2024-01-15T05:14:56;99028.28;;;-4.13;100.00
62111;BME280;48102;47.526;19.072;2024-01-15T05:17:59;99036.03;;;-4.16;100.00
62111;BME280;48102;47.526;19.072;2024-01-15T05:21:03;99041.09;;;-4.12;100.00
62111;BME280;48102;47.526;19.072;2024-01-15T05:24:06;99035.13;;;-4.12;100.00
62111;BME280;48102;47.526;19.072;2024-01-15T05:27:10;99038.44;;;-4.04;100.00
62111;BME280;48102;47.526;19.072;2024-01-15T05:30:13;99030.75;;;-4.07;100.00
62111;BME280;48102;47.526;19.072;2024-01-15T05:33:17;99032.37;;;-3.98;100.00
62111;BME280;48102;47.526;19.072;2024-01-15T05:36:20;99023.84;;;-4.00;100.00
62111;BME280;48102;47.526;19.072;2024-01-15T05:39:23;99023.00;;;-4.03;100.00
62111;BME280;48102;47.526;19.072;2024-01-15T05:42:26;99041.81;;;-3.99;100.00
62111;BME280;48102;47.526;19.072;2024-01-15T05:45:30;99037.50;;;-3.95;100.00
62111;BME280;48102;47.526;19.072;2024-01-15T05:48:33;99032.37;;;-3.97;100.00
62111;BME280;48102;47.526;19.072;2024-01-15T05:51:36;99035.78;;;-3.96;100.00
62111;BME280;48102;47.526;19.072;2024-01-15T05:54:39;99039.19;;;-3.94;100.00
62111;BME280;48102;47.526;19.072;2024-01-15T05:57:43;99040.06;;;-3.95;100.00
62111;BME280;48102;47.526;19.072;2024-01-15T06:00:45;99038.31;;;-3.92;100.00
62111;BME280;48102;47.526;19.072;2024-01-15T06:03:51;99035.66;;;-3.86;100.00
62111;BME280;48102;47.526;19.072;2024-01-15T06:06:55;99026.09;;;-3.78;100.00
62111;BME280;48102;47.526;19.072;2024-01-15T06:09:58;99013.22;;;-3.74;100.00
62111;BME280;48102;47.526;19.072;2024-01-15T06:13:02;99020.00;;;-3.69;100.00
62111;BME280;48102;47.526;19.072;2024-01-15T06:16:15;99003.53;;;-3.59;100.00
62111;BME280;48102;47.526;19.072;2024-01-15T06:19:22;99015.56;;;-3.58;100.00
62111;BME280;48102;47.526;19.072;2024-01-15T06:22:26;99018.97;;;-3.59;100.00
62111;BME280;48102;47.526;19.072;2024-01-15T06:25:29;99019.78;;;-3.54;100.00
62111;BME280;48102;47.526;19.072;2024-01-15T06:28:32;99018.00;;;-3.50;100.00
62111;BME280;48102;47.526;19.072;2024-01-15T06:31:35;99030.03;;;-3.50;100.00
62111;BME280;48102;47.526;19.072;2024-01-15T06:34:38;99024.03;;;-3.51;100.00
62111;BME280;48102;47.526;19.072;2024-01-15T06:37:42;99019.66;;;-3.46;100.00
62111;BME280;48102;47.526;19.072;2024-01-15T06:40:45;99026.37;;;-3.36;100.00
62111;BME280;48102;47.526;19.072;2024-01-15T06:43:54;99033.16;;;-3.30;100.00
62111;BME280;48102;47.526;19.072;2024-01-15T06:46:58;99031.34;;;-3.22;100.00
62111;BME280;48102;47.526;19.072;2024-01-15T06:50:05;99031.22;;;-3.16;100.00
62111;BME280;48102;47.526;19.072;2024-01-15T06:53:10;99031.16;;;-3.10;100.00
62111;BME280;48102;47.526;19.072;2024-01-15T06:56:13;99029.38;;;-3.08;100.00
62111;BME280;48102;47.526;19.072;2024-01-15T06:59:16;99023.41;;;-3.11;100.00
62111;BME280;48102;47.526;19.072;2024-01-15T07:02:21;99019.16;;;-3.12;100.00
62111;BME280;48102;47.526;19.072;2024-01-15T07:05:24;99028.25;;;-2.91;100.00
62111;BME280;48102;47.526;19.072;2024-01-15T07:08:27;99022.09;;;-2.83;100.00
62111;BME280;48102;47.526;19.072;2024-01-15T07:11:30;99027.19;;;-2.78;100.00
62111;BME280;48102;47.526;19.072;2024-01-15T07:14:33;99021.94;;;-2.72;100.00
62111;BME280;48102;47.526;19.072;2024-01-15T07:17:37;99020.16;;;-2.70;100.00
62111;BME280;48102;47.526;19.072;2024-01-15T07:20:42;99026.88;;;-2.61;100.00
62111;BME280;48102;47.526;19.072;2024-01-15T07:23:46;99043.88;;;-2.49;100.00
62111;BME280;48102;47.526;19.072;2024-01-15T07:26:50;99041.31;;;-2.51;100.00
62111;BME280;48102;47.526;19.072;2024-01-15T07:29:53;99053.47;;;-2.59;100.00
62111;BME280;48102;47.526;19.072;2024-01-15T07:32:58;99056.16;;;-2.64;100.00
62111;BME280;48102;47.526;19.072;2024-01-15T07:36:01;99051.09;;;-2.70;100.00
62111;BME280;48102;47.526;19.072;2024-01-15T07:39:05;99045.22;;;-2.78;100.00
62111;BME280;48102;47.526;19.072;2024-01-15T07:42:11;99053.00;;;-2.81;100.00
62111;BME280;48102;47.526;19.072;2024-01-15T07:45:13;99064.97;;;-2.77;100.00
62111;BME280;48102;47.526;19.072;2024-01-15T07:48:16;99067.53;;;-2.77;100.00
62111;BME280;48102;47.526;19.072;2024-01-15T07:51:20;99079.53;;;-2.74;100.00
62111;BME280;48102;47.526;19.072;2024-01-15T07:54:23;99085.38;;;-2.65;100.00
62111;BME280;48102;47.526;19.072;2024-01-15T07:57:26;99079.31;;;-2.61;100.00
62111;BME280;48102;47.526;19.072;2024-01-15T08:00:30;99076.31;;;-2.36;100.00
62111;BME280;48102;47.526;19.072;2024-01-15T08:03:33;99077.13;;;-2.33;100.00
62111;BME280;48102;47.526;19.072;2024-01-15T08:06:36;99058.28;;;-1.94;100.00
62111;BME280;48102;47.526;19.072;2024-01-15T08:09:39;99056.75;;;-1.60;100.00
62111;BME280;48102;47.526;19.072;2024-01-15T08:12:42;99049.69;;;-1.14;100.00
62111;BME280;48102;47.526;19.072;2024-01-15T08:15:46;99062.50;;;-0.74;100.00
62111;BME280;48102;47.526;19.072;2024-01-15T08:18:48;99070.03;;;-0.31;100.00
62111;BME280;48102;47.526;19.072;2024-01-15T08:21:52;99076.75;;;0.09;100.00
62111;BME280;48102;47.526;19.072;2024-01-15T08:24:56;99077.44;;;0.45;100.00
62111;BME280;48102;47.526;19.072;2024-01-15T08:27:59;99082.41;;;0.81;100.00
62111;BME280;48102;47.526;19.072;2024-01-15T08:31:02;99084.22;;;1.07;100.00
62111;BME280;48102;47.526;19.072;2024-01-15T08:34:05;99083.81;;;1.19;100.00
62111;BME280;48102;47.526;19.072;2024-01-15T08:37:09;99079.75;;;1.39;100.00
62111;BME280;48102;47.526;19.072;2024-01-15T08:40:12;99093.06;;;1.55;99.43
62111;BME280;48102;47.526;19.072;2024-01-15T08:43:16;99086.94;;;1.82;98.10
62111;BME280;48102;47.526;19.072;2024-01-15T08:46:19;99082.78;;;2.01;94.15
62111;BME280;48102;47.526;19.072;2024-01-15T08:49:22;99084.78;;;2.18;91.60
62111;BME280;48102;47.526;19.072;2024-01-15T08:52:25;99083.25;;;2.83;86.03
62111;BME280;48102;47.526;19.072;2024-01-15T08:55:30;99093.47;;;3.32;81.43
62111;BME280;48102;47.526;19.072;2024-01-15T08:58:33;99101.56;;;3.25;80.76
62111;BME280;48102;47.526;19.072;2024-01-15T09:01:36;99096.53;;;2.99;80.55
62111;BME280;48102;47.526;19.072;2024-01-15T09:04:39;99089.00;;;2.91;81.78
62111;BME280;48102;47.526;19.072;2024-01-15T09:07:42;99094.94;;;2.95;81.69
62111;BME280;48102;47.526;19.072;2024-01-15T09:10:45;99093.00;;;3.00;79.04
62111;BME280;48102;47.526;19.072;2024-01-15T09:13:48;99099.59;;;3.31;77.56
62111;BME280;48102;47.526;19.072;2024-01-15T09:16:52;99100.31;;;3.56;75.38
62111;BME280;48102;47.526;19.072;2024-01-15T09:19:54;99085.66;;;3.74;73.93
62111;BME280;48102;47.526;19.072;2024-01-15T09:22:57;99090.00;;;3.33;74.18
62111;BME280;48102;47.526;19.072;2024-01-15T09:26:00;99088.66;;;3.22;74.58
62111;BME280;48102;47.526;19.072;2024-01-15T09:29:03;99083.75;;;3.15;72.58
62111;BME280;48102;47.526;19.072;2024-01-15T09:32:06;99076.63;;;3.20;73.08
62111;BME280;48102;47.526;19.072;2024-01-15T09:35:10;99074.13;;;3.17;72.87
62111;BME280;48102;47.526;19.072;2024-01-15T09:38:13;99071.41;;;3.20;74.67
62111;BME280;48102;47.526;19.072;2024-01-15T09:41:16;99081.47;;;3.29;72.86
62111;BME280;48102;47.526;19.072;2024-01-15T09:44:21;99066.69;;;3.30;72.80
62111;BME280;48102;47.526;19.072;2024-01-15T09:47:24;99061.75;;;3.44;72.62
62111;BME280;48102;47.526;19.072;2024-01-15T09:50:30;99057.06;;;3.52;72.10
62111;BME280;48102;47.526;19.072;2024-01-15T09:53:35;99048.22;;;3.56;69.23
62111;BME280;48102;47.526;19.072;2024-01-15T09:56:51;99048.81;;;3.63;69.71
62111;BME280;48102;47.526;19.072;2024-01-15T09:59:54;99044.91;;;3.73;68.78
62111;BME280;48102;47.526;19.072;2024-01-15T10:02:59;99033.25;;;3.61;66.45
62111;BME280;48102;47.526;19.072;2024-01-15T10:06:04;99036.50;;;3.66;67.72
62111;BME280;48102;47.526;19.072;2024-01-15T10:09:07;99030.72;;;3.80;67.25
62111;BME280;48102;47.526;19.072;2024-01-15T10:12:11;99019.69;;;3.94;66.14
62111;BME280;48102;47.526;19.072;2024-01-15T10:15:14;99022.38;;;4.11;63.64
62111;BME280;48102;47.526;19.072;2024-01-15T10:18:17;99016.16;;;4.14;63.97
62111;BME280;48102;47.526;19.072;2024-01-15T10:21:20;99024.84;;;4.14;60.98
62111;BME280;48102;47.526;19.072;2024-01-15T10:24:24;99017.72;;;4.18;61.23
62111;BME280;48102;47.526;19.072;2024-01-15T10:27:27;99014.50;;;4.32;60.70
62111;BME280;48102;47.526;19.072;2024-01-15T10:30:32;99004.41;;;4.43;59.90
62111;BME280;48102;47.526;19.072;2024-01-15T10:33:35;99007.59;;;4.49;61.04
62111;BME280;48102;47.526;19.072;2024-01-15T10:36:45;98991.03;;;4.50;60.57
62111;BME280;48102;47.526;19.072;2024-01-15T10:39:52;98994.44;;;4.70;60.00
62111;BME280;48102;47.526;19.072;2024-01-15T10:42:55;98992.69;;;4.70;60.01
62111;BME280;48102;47.526;19.072;2024-01-15T10:45:58;98997.38;;;4.64;60.80
62111;BME280;48102;47.526;19.072;2024-01-15T10:49:01;98997.31;;;4.46;59.67
62111;BME280;48102;47.526;19.072;2024-01-15T10:52:04;99007.66;;;4.29;60.41
62111;BME280;48102;47.526;19.072;2024-01-15T10:55:09;99005.91;;;4.11;60.94
62111;BME280;48102;47.526;19.072;2024-01-15T10:58:20;99012.16;;;4.25;61.11
62111;BME280;48102;47.526;19.072;2024-01-15T11:01:24;99003.59;;;4.42;62.47
62111;BME280;48102;47.526;19.072;2024-01-15T11:04:32;98999.62;;;4.52;61.99
62111;BME280;48102;47.526;19.072;2024-01-15T11:07:35;98994.63;;;4.67;60.67
62111;BME280;48102;47.526;19.072;2024-01-15T11:10:46;98997.09;;;4.87;60.30
62111;BME280;48102;47.526;19.072;2024-01-15T11:13:52;98999.22;;;4.98;60.30
62111;BME280;48102;47.526;19.072;2024-01-15T11:16:55;98999.72;;;5.23;59.55
62111;BME280;48102;47.526;19.072;2024-01-15T11:19:59;98976.66;;;5.32;58.53
62111;BME280;48102;47.526;19.072;2024-01-15T11:23:02;98984.28;;;5.36;58.37
62111;BME280;48102;47.526;19.072;2024-01-15T11:26:35;98979.19;;;5.50;58.67
62111;BME280;48102;47.526;19.072;2024-01-15T11:29:38;98964.31;;;5.68;57.46
62111;BME280;48102;47.526;19.072;2024-01-15T11:32:41;98974.06;;;5.82;57.97
62111;BME280;48102;47.526;19.072;2024-01-15T11:35:48;98976.06;;;5.94;57.42
62111;BME280;48102;47.526;19.072;2024-01-15T11:38:52;98969.34;;;6.06;55.99
62111;BME280;48102;47.526;19.072;2024-01-15T11:41:55;98961.09;;;6.14;56.56
62111;BME280;48102;47.526;19.072;2024-01-15T11:45:00;98968.09;;;6.29;57.05
62111;BME280;48102;47.526;19.072;2024-01-15T11:48:16;98967.91;;;6.16;55.57
62111;BME280;48102;47.526;19.072;2024-01-15T11:51:22;98968.88;;;6.31;56.18
62111;BME280;48102;47.526;19.072;2024-01-15T11:54:29;98958.41;;;6.63;54.97
62111;BME280;48102;47.526;19.072;2024-01-15T11:57:51;98940.34;;;6.42;55.67
62111;BME280;48102;47.526;19.072;2024-01-15T12:00:54;98940.87;;;6.00;56.06
62111;BME280;48102;47.526;19.072;2024-01-15T12:03:58;98924.72;;;5.76;56.62
62111;BME280;48102;47.526;19.072;2024-01-15T12:07:01;98939.56;;;5.75;56.14
62111;BME280;48102;47.526;19.072;2024-01-15T12:10:11;98930.19;;;5.71;57.15
62111;BME280;48102;47.526;19.072;2024-01-15T12:13:17;98940.28;;;5.62;57.44
62111;BME280;48102;47.526;19.072;2024-01-15T12:16:23;98936.81;;;5.61;56.79
62111;BME280;48102;47.526;19.072;2024-01-15T12:19:26;98932.69;;;5.57;57.24
62111;BME280;48102;47.526;19.072;2024-01-15T12:22:29;98925.63;;;5.42;57.27
62111;BME280;48102;47.526;19.072;2024-01-15T12:25:46;98922.44;;;5.52;57.15
62111;BME280;48102;47.526;19.072;2024-01-15T12:28:50;98923.88;;;5.42;57.08
62111;BME280;48102;47.526;19.072;2024-01-15T12:31:57;98916.34;;;5.36;57.49
62111;BME280;48102;47.526;19.072;2024-01-15T12:35:00;98893.63;;;5.21;57.58
62111;BME280;48102;47.526;19.072;2024-01-15T12:38:05;98895.47;;;5.19;57.65
62111;BME280;48102;47.526;19.072;2024-01-15T12:41:11;98903.59;;;5.13;57.26
62111;BME280;48102;47.526;19.072;2024-01-15T12:44:14;98896.84;;;5.09;58.12
62111;BME280;48102;47.526;19.072;2024-01-15T12:47:17;98899.88;;;5.01;59.08
62111;BME280;48102;47.526;19.072;2024-01-15T12:50:24;98892.03;;;5.01;58.78
62111;BME280;48102;47.526;19.072;2024-01-15T12:53:28;98889.44;;;5.01;58.68
62111;BME280;48102;47.526;19.072;2024-01-15T12:56:33;98882.13;;;5.08;58.29
62111;BME280;48102;47.526;19.072;2024-01-15T12:59:36;98890.63;;;5.11;58.81
62111;BME280;48102;47.526;19.072;2024-01-15T13:02:39;98873.28;;;5.10;57.68
62111;BME280;48102;47.526;19.072;2024-01-15T13:05:44;98885.03;;;5.01;58.64
62111;BME280;48102;47.526;19.072;2024-01-15T13:08:48;98884.59;;;4.93;57.90
62111;BME280;48102;47.526;19.072;2024-01-15T13:11:51;98882.44;;;4.84;58.54
62111;BME280;48102;47.526;19.072;2024-01-15T13:14:55;98891.72;;;4.72;58.36
62111;BME280;48102;47.526;19.072;2024-01-15T13:17:59;98894.00;;;4.78;59.21
62111;BME280;48102;47.526;19.072;2024-01-15T13:21:02;98901.84;;;4.78;58.77
62111;BME280;48102;47.526;19.072;2024-01-15T13:24:06;98901.22;;;4.73;59.20
62111;BME280;48102;47.526;19.072;2024-01-15T13:27:09;98893.94;;;4.63;59.83
62111;BME280;48102;47.526;19.072;2024-01-15T13:30:12;98886.63;;;4.69;58.88
62111;BME280;48102;47.526;19.072;2024-01-15T13:33:15;98888.25;;;4.72;59.20
62111;BME280;48102;47.526;19.072;2024-01-15T13:36:19;98898.47;;;4.76;59.35
62111;BME280;48102;47.526;19.072;2024-01-15T13:39:24;98895.47;;;4.67;59.47
62111;BME280;48102;47.526;19.072;2024-01-15T13:42:29;98897.16;;;4.68;59.83
62111;BME280;48102;47.526;19.072;2024-01-15T13:45:31;98904.97;;;4.68;59.87
62111;BME280;48102;47.526;19.072;2024-01-15T13:48:35;98903.72;;;4.58;60.26
62111;BME280;48102;47.526;19.072;2024-01-15T13:51:38;98904.34;;;4.45;60.59
62111;BME280;48102;47.526;19.072;2024-01-15T13:54:41;98899.41;;;4.39;60.32
62111;BME280;48102;47.526;19.072;2024-01-15T13:57:52;98904.97;;;4.32;61.01
62111;BME280;48102;47.526;19.072;2024-01-15T14:00:55;98906.81;;;4.30;60.89
62111;BME280;48102;47.526;19.072;2024-01-15T14:03:58;98902.16;;;4.36;61.19
62111;BME280;48102;47.526;19.072;2024-01-15T14:07:00;98899.19;;;4.44;61.30
62111;BME280;48102;47.526;19.072;2024-01-15T14:10:04;98898.69;;;4.55;61.19
62111;BME280;48102;47.526;19.072;2024-01-15T14:13:06;98896.59;;;4.61;60.65
62111;BME280;48102;47.526;19.072;2024-01-15T14:16:09;98886.94;;;4.63;61.15
62111;BME280;48102;47.526;19.072;2024-01-15T14:19:16;98897.16;;;4.68;60.93
62111;BME280;48102;47.526;19.072;2024-01-15T14:22:19;98906.44;;;5.08;59.67
62111;BME280;48102;47.526;19.072;2024-01-15T14:25:22;98911.47;;;5.63;57.34
62111;BME280;48102;47.526;19.072;2024-01-15T14:28:27;98912.22;;;5.98;56.20
62111;BME280;48102;47.526;19.072;2024-01-15T14:31:29;98910.37;;;6.00;56.29
62111;BME280;48102;47.526;19.072;2024-01-15T14:34:33;98912.25;;;5.81;58.08
62111;BME280;48102;47.526;19.072;2024-01-15T14:37:39;98899.59;;;5.73;57.91
62111;BME280;48102;47.526;19.072;2024-01-15T14:40:42;98899.16;;;5.15;58.54
62111;BME280;48102;47.526;19.072;2024-01-15T14:43:46;98903.06;;;4.71;59.78
62111;BME280;48102;47.526;19.072;2024-01-15T14:46:49;98907.91;;;4.43;61.30
62111;BME280;48102;47.526;19.072;2024-01-15T14:49:52;98911.63;;;4.20;62.36
62111;BME280;48102;47.526;19.072;2024-01-15T14:52:55;98914.66;;;3.92;64.03
62111;BME280;48102;47.526;19.072;2024-01-15T14:56:00;98916.81;;;3.82;64.46
62111;BME280;48102;47.526;19.072;2024-01-15T14:59:05;98920.78;;;3.72;64.81
62111;BME280;48102;47.526;19.072;2024-01-15T15:02:08;98917.88;;;3.59;64.96
62111;BME280;48102;47.526;19.072;2024-01-15T15:05:15;98912.03;;;3.54;66.85
62111;BME280;48102;47.526;19.072;2024-01-15T15:08:19;98919.13;;;3.50;67.05
62111;BME280;48102;47.526;19.072;2024-01-15T15:11:22;98913.44;;;3.41;68.01
62111;BME280;48102;47.526;19.072;2024-01-15T15:14:25;98909.97;;;3.21;68.81
62111;BME280;48102;47.526;19.072;2024-01-15T15:17:28;98910.34;;;3.12;70.04
62111;BME280;48102;47.526;19.072;2024-01-15T15:20:31;98909.50;;;3.12;70.02
62111;BME280;48102;47.526;19.072;2024-01-15T15:23:34;98914.00;;;3.08;69.38
62111;BME280;48102;47.526;19.072;2024-01-15T15:26:37;98909.41;;;2.93;70.52
62111;BME280;48102;47.526;19.072;2024-01-15T15:29:40;98906.47;;;2.80;70.96
62111;BME280;48102;47.526;19.072;2024-01-15T15:32:43;98896.59;;;2.68;73.17
62111;BME280;48102;47.526;19.072;2024-01-15T15:35:46;98903.78;;;2.61;72.96
62111;BME280;48102;47.526;19.072;2024-01-15T15:38:50;98890.78;;;2.61;73.54
62111;BME280;48102;47.526;19.072;2024-01-15T15:41:54;98894.03;;;2.66;71.82
62111;BME280;48102;47.526;19.072;2024-01-15T15:44:57;98899.06;;;2.71;72.71
62111;BME280;48102;47.526;19.072;2024-01-15T15:48:07;98891.56;;;2.63;72.71
62111;BME280;48102;47.526;19.072;2024-01-15T15:51:09;98891.75;;;2.59;73.59
62111;BME280;48102;47.526;19.072;2024-01-15T15:54:13;98897.09;;;2.56;73.92
62111;BME280;48102;47.526;19.072;2024-01-15T15:57:15;98891.09;;;2.54;74.47
62111;BME280;48102;47.526;19.072;2024-01-15T16:00:19;98901.31;;;2.58;73.76
62111;BME280;48102;47.526;19.072;2024-01-15T16:03:22;98910.97;;;2.55;74.26
62111;BME280;48102;47.526;19.072;2024-01-15T16:06:25;98921.53;;;2.51;74.34
62111;BME280;48102;47.526;19.072;2024-01-15T16:09:28;98941.69;;;2.45;74.78
62111;BME280;48102;47.526;19.072;2024-01-15T16:12:31;98945.41;;;2.39;76.88
62111;BME280;48102;47.526;19.072;2024-01-15T16:15:34;98939.56;;;2.33;76.31
62111;BME280;48102;47.526;19.072;2024-01-15T16:18:38;98943.16;;;2.30;76.63
62111;BME280;48102;47.526;19.072;2024-01-15T16:22:01;98935.25;;;2.33;77.02
62111;BME280;48102;47.526;19.072;2024-01-15T16:25:24;98946.81;;;2.24;76.53
62111;BME280;48102;47.526;19.072;2024-01-15T16:28:28;98930.38;;;2.24;75.51
62111;BME280;48102;47.526;19.072;2024-01-15T16:31:31;98937.12;;;2.30;75.79
